Main page
METAR-TAF:

METAR-TAF

Airports :

Norwood Memorial Airport

Norwood, Massachusetts, United States

latitude: 42-11-27N, longitude: 071-10-26W, elevation: 49 ft

Current weather observation

The report was made 28 minutes ago, at 17:53 UTC
Wind 20 mph from the West with gusts up to 31 mph
Temperature 50°F
Humidity 46%
Pressure 29.28 in. Hg
Visibility: 10 miles
Broken clouds at a height of 3900 ft
Broken clouds at a height of 4700 ft

METAR: KOWD 271753Z 26017G27KT 10SM BKN039 BKN047 10/M01 A2928 RMK AO2 PK WND 27031/1659 SLP913 60018 T01001006 10128 20094 53025

Time: 13:21 (18:21 UTC)


TAF: missing

Weather observations and forecasts of more than 4000 airports (METAR and TAF reports).

The available stations are represented by yellow and red dots on the map.

Hover mouse over dot to see the name of the station.

Then click to see weather observations and forecasts.

To change the map : click on the green buttons with a black cross to zoom in, on the green button with a dash to zoom out, or on the green arrows for adjacent maps.


METAR-TAF: